首页
METAR-TAF:

METAR-TAF

机场 :

津德尔, 尼日尔

纬度: 13-47N, 经度: 008-59E, 海拔: 452米

当前天气观测

该预报发布于4小时和54分钟前的18:00 UTC
风速7节,风向东转东北
温度 26°C
湿度 70%
气压 1011 hPa
能見度: 8000
少量云层高于4000英尺, 积雨云.
雷暴, 小雨,

METAR: DRZR 141800Z 07007KT 8000 -TSRA FEW040CB 26/20 Q1011

时间: 23:54 (22:54 UTC)

预报

该预报发布于5小时和54分钟前的17:00 UTC
预报有效从14日的 18点(UTC)到 15日的 18点(UTC)
风速15节,风向东转东北
能見度: 4000
散云层高于3000英尺
散云层高于4000英尺, 积雨云.
雷暴, 雨
从 14日的 2100点(UTC)
风速10节,风向西南
能见度10公里或以上
1500米以下无云,无积雨云

TAF: DRZR 141700Z 1418/1518 06015KT 4000 TSRA SCT030 SCT040CB FM142100 22010KT CAVOK

超过4000个机场的气象观测和天气预报(METAR&TAF报告)。

可查询的气象台以黄色和红色小点在地图上表示。

将鼠标移到小点上方,可查看气象台名称。

然后点击查看天气观测和预报。

如需切换地图:点击带黑十字的绿色按钮放大地图;点击带横线的绿色按钮缩小地图;或者点击绿色箭头查看邻近地区的地图。


METAR-TAF: